createdAt,value
2019-03-31T00:01:47.475Z,5.04
2019-03-31T00:04:15.983Z,4.88
2019-03-31T00:06:44.459Z,5.04
2019-03-31T00:09:12.951Z,4.94
2019-03-31T00:11:41.539Z,4.82
2019-03-31T00:14:10.026Z,4.81
2019-03-31T00:16:38.578Z,4.93
2019-03-31T00:19:07.197Z,4.85
2019-03-31T00:21:35.756Z,4.64
2019-03-31T00:24:04.281Z,4.57
2019-03-31T00:26:32.822Z,4.64
2019-03-31T00:29:01.320Z,4.56
2019-03-31T00:31:29.818Z,4.45
2019-03-31T00:33:58.324Z,4.38
2019-03-31T00:36:26.793Z,4.37
2019-03-31T00:38:55.300Z,4.36
2019-03-31T00:41:23.771Z,4.32
2019-03-31T00:43:52.274Z,4.14
2019-03-31T00:46:20.768Z,4.04
2019-03-31T00:48:49.233Z,4.05
2019-03-31T00:51:17.749Z,4.43
2019-03-31T00:53:46.226Z,4.41
2019-03-31T00:56:14.741Z,4.29
2019-03-31T00:58:43.320Z,4.29
2019-03-31T01:01:14.144Z,4.26
2019-03-31T01:03:42.625Z,4.08
2019-03-31T01:06:12.733Z,4.05
2019-03-31T01:08:41.212Z,4.18
2019-03-31T01:11:12.776Z,4.18
2019-03-31T01:13:41.351Z,4.15
2019-03-31T01:16:12.662Z,4.11
2019-03-31T01:18:41.400Z,4.06
2019-03-31T01:21:10.055Z,4.05
2019-03-31T01:23:38.582Z,4.04
2019-03-31T01:26:07.464Z,4.28
2019-03-31T01:28:36.014Z,4.82
2019-03-31T01:31:04.658Z,5.37
2019-03-31T01:33:33.219Z,5.68
2019-03-31T01:36:01.728Z,6.05
2019-03-31T01:38:30.285Z,6.32
2019-03-31T01:40:58.800Z,6.58
2019-03-31T01:43:27.280Z,6.72
2019-03-31T01:45:55.961Z,6.93
2019-03-31T01:48:24.435Z,6.78
2019-03-31T01:50:52.937Z,6.79
2019-03-31T01:53:21.416Z,6.84
2019-03-31T01:55:49.987Z,6.83
2019-03-31T01:58:18.468Z,6.67
2019-03-31T02:00:54.207Z,6.67
2019-03-31T02:03:22.753Z,6.58
2019-03-31T02:05:51.405Z,6.61
2019-03-31T02:08:20.063Z,7.06
2019-03-31T02:10:48.583Z,7.37
2019-03-31T02:13:17.062Z,7.53
2019-03-31T02:15:45.575Z,7.47
2019-03-31T02:18:14.061Z,7.24
2019-03-31T02:20:42.564Z,7.23
2019-03-31T02:23:11.105Z,7.07
2019-03-31T02:25:39.614Z,7.02
2019-03-31T02:28:08.093Z,7.28
2019-03-31T02:30:36.600Z,7.28
2019-03-31T02:33:05.088Z,7.20
2019-03-31T02:35:33.579Z,7.33
2019-03-31T02:38:02.061Z,7.48
2019-03-31T02:40:30.641Z,7.54
2019-03-31T02:42:59.192Z,7.44
2019-03-31T02:45:27.690Z,7.38
2019-03-31T02:47:56.164Z,7.49
2019-03-31T02:50:36.686Z,7.51
2019-03-31T02:53:05.165Z,7.50
2019-03-31T02:55:33.739Z,7.63
2019-03-31T02:58:02.355Z,7.65
2019-03-31T03:00:32.059Z,7.64
2019-03-31T03:03:01.969Z,7.71
2019-03-31T03:05:32.458Z,7.79
2019-03-31T03:08:01.821Z,7.57
2019-03-31T03:10:31.996Z,7.64
2019-03-31T03:13:01.979Z,7.59
2019-03-31T03:15:32.576Z,7.80
2019-03-31T03:18:01.053Z,7.83
2019-03-31T03:20:29.554Z,7.95
2019-03-31T03:22:58.034Z,7.98
2019-03-31T03:25:26.540Z,7.93
2019-03-31T03:27:55.023Z,7.94
2019-03-31T03:30:23.625Z,8.01
2019-03-31T03:33:13.313Z,8.19
2019-03-31T03:35:22.484Z,8.14
2019-03-31T03:37:50.952Z,8.30
2019-03-31T03:40:19.456Z,8.39
2019-03-31T03:42:47.944Z,8.36
2019-03-31T03:45:16.447Z,8.49
2019-03-31T03:47:44.942Z,8.46
2019-03-31T03:50:13.427Z,8.58
2019-03-31T03:52:41.928Z,8.78
2019-03-31T03:55:10.547Z,8.58
2019-03-31T03:57:39.062Z,8.71
2019-03-31T04:00:09.116Z,8.52
2019-03-31T04:02:37.621Z,8.71
2019-03-31T04:05:06.741Z,8.75
2019-03-31T04:07:35.261Z,8.67
2019-03-31T04:10:06.777Z,8.63
2019-03-31T04:12:35.278Z,8.79
2019-03-31T04:15:03.823Z,8.67
2019-03-31T04:17:32.321Z,8.57
2019-03-31T04:20:00.826Z,8.70
2019-03-31T04:22:29.330Z,8.75
2019-03-31T04:24:57.811Z,8.71
2019-03-31T04:27:26.334Z,8.75
2019-03-31T04:29:54.793Z,8.75
2019-03-31T04:32:23.309Z,8.75
2019-03-31T04:34:51.794Z,8.80
2019-03-31T04:37:20.287Z,8.75
2019-03-31T04:39:48.780Z,8.80
2019-03-31T04:42:17.279Z,9.08
2019-03-31T04:44:45.758Z,9.00
2019-03-31T04:47:14.270Z,8.80
2019-03-31T04:49:42.754Z,8.31
2019-03-31T04:52:11.252Z,8.33
2019-03-31T04:54:39.729Z,8.36
2019-03-31T04:57:08.242Z,8.17
2019-03-31T04:59:36.727Z,8.24
2019-03-31T05:02:05.226Z,8.39
2019-03-31T05:04:33.708Z,8.58
2019-03-31T05:07:02.210Z,8.74
2019-03-31T05:09:30.686Z,8.92
2019-03-31T05:11:59.189Z,9.05
2019-03-31T05:14:27.669Z,9.08
2019-03-31T05:16:56.173Z,9.16
2019-03-31T05:19:24.653Z,9.20
2019-03-31T05:21:53.157Z,9.18
2019-03-31T05:24:21.640Z,9.23
2019-03-31T05:26:50.141Z,9.22
2019-03-31T05:29:18.619Z,9.40
2019-03-31T05:31:47.133Z,9.28
2019-03-31T05:34:19.212Z,9.25
2019-03-31T05:36:45.836Z,9.06
2019-03-31T05:39:14.311Z,8.97
2019-03-31T05:41:42.821Z,8.98
2019-03-31T05:44:11.300Z,9.22
2019-03-31T05:46:39.812Z,9.20
2019-03-31T05:49:08.290Z,9.09
2019-03-31T05:51:36.823Z,9.08
2019-03-31T05:54:05.295Z,9.22
2019-03-31T05:56:33.814Z,9.13
2019-03-31T05:59:02.291Z,9.10
2019-03-31T06:01:30.793Z,8.96
2019-03-31T06:03:59.275Z,8.91
2019-03-31T06:06:27.786Z,8.97
2019-03-31T06:08:56.265Z,9.16
2019-03-31T06:11:24.769Z,9.29
2019-03-31T06:13:53.245Z,9.46
2019-03-31T06:16:21.722Z,9.47
2019-03-31T06:18:50.226Z,9.60
2019-03-31T06:21:18.698Z,9.88
2019-03-31T06:23:47.202Z,10.07
2019-03-31T06:26:15.682Z,10.14
2019-03-31T06:28:44.194Z,10.31
2019-03-31T06:31:12.681Z,10.51
2019-03-31T06:33:41.186Z,10.69
2019-03-31T06:36:09.669Z,10.71
2019-03-31T06:38:38.183Z,10.62
2019-03-31T06:41:06.738Z,10.81
2019-03-31T06:43:35.243Z,10.84
2019-03-31T06:46:03.735Z,11.00
2019-03-31T06:48:32.238Z,10.93
2019-03-31T06:51:00.724Z,10.73
2019-03-31T06:53:29.232Z,10.67
2019-03-31T06:55:57.717Z,10.61
2019-03-31T06:58:26.214Z,10.55
2019-03-31T07:00:54.688Z,10.38
2019-03-31T07:03:23.197Z,10.51
2019-03-31T07:05:51.764Z,10.66
2019-03-31T07:08:20.259Z,10.74
2019-03-31T07:10:48.734Z,10.79
2019-03-31T07:13:17.249Z,10.89
2019-03-31T07:15:45.732Z,10.97
2019-03-31T07:18:15.981Z,10.98
2019-03-31T07:20:44.591Z,11.03
2019-03-31T07:23:13.099Z,11.12
2019-03-31T07:25:41.586Z,11.26
2019-03-31T07:28:10.110Z,11.35
2019-03-31T07:30:38.605Z,11.34
2019-03-31T07:33:07.119Z,11.45
2019-03-31T07:35:38.812Z,11.67
2019-03-31T07:38:05.851Z,11.61
2019-03-31T07:40:34.335Z,11.58
2019-03-31T07:43:02.900Z,11.70
2019-03-31T07:45:31.405Z,11.78
2019-03-31T07:47:59.904Z,11.98
2019-03-31T07:50:28.535Z,12.10
2019-03-31T07:52:57.072Z,12.13
2019-03-31T07:55:25.560Z,12.02
2019-03-31T07:57:54.699Z,12.27
2019-03-31T08:00:25.476Z,12.12
2019-03-31T08:02:54.069Z,12.42
2019-03-31T08:05:33.030Z,12.54
2019-03-31T08:07:52.773Z,12.60
2019-03-31T08:10:21.492Z,12.65
2019-03-31T08:12:50.000Z,12.57
2019-03-31T08:15:19.050Z,12.60
2019-03-31T08:17:47.560Z,12.09
2019-03-31T08:20:18.636Z,12.29
2019-03-31T08:22:47.418Z,12.54
2019-03-31T08:25:16.740Z,12.62
2019-03-31T08:27:45.250Z,12.52
2019-03-31T08:30:15.085Z,12.75
2019-03-31T08:32:43.596Z,13.00
2019-03-31T08:35:13.618Z,13.07
2019-03-31T08:37:42.117Z,13.14
2019-03-31T08:40:11.844Z,13.34
2019-03-31T08:42:40.361Z,13.47
2019-03-31T08:45:10.119Z,13.50
2019-03-31T08:47:38.895Z,13.44
2019-03-31T08:50:08.234Z,13.50
2019-03-31T08:52:36.801Z,13.69
2019-03-31T08:55:06.429Z,13.20
2019-03-31T08:57:35.151Z,13.37
2019-03-31T09:00:05.303Z,13.52
2019-03-31T09:02:34.969Z,13.69
2019-03-31T09:05:04.705Z,13.82
2019-03-31T09:07:33.181Z,13.98
2019-03-31T09:10:01.769Z,13.82
2019-03-31T09:12:30.245Z,14.04
2019-03-31T09:14:58.753Z,14.40
2019-03-31T09:17:27.234Z,14.80
2019-03-31T09:19:55.812Z,14.63
2019-03-31T09:22:24.303Z,15.09
2019-03-31T09:24:52.817Z,15.68
2019-03-31T09:27:21.376Z,16.00
2019-03-31T09:29:49.892Z,16.67
2019-03-31T09:32:18.384Z,17.52
2019-03-31T09:34:46.971Z,18.09
2019-03-31T09:37:15.447Z,18.44
2019-03-31T09:39:43.962Z,17.50
2019-03-31T09:42:12.440Z,17.27
2019-03-31T09:44:40.955Z,16.13
2019-03-31T09:47:09.438Z,16.46
2019-03-31T09:49:37.943Z,16.07
2019-03-31T09:52:06.426Z,15.99
2019-03-31T09:54:34.932Z,14.29
2019-03-31T09:57:03.589Z,14.65
2019-03-31T09:59:32.090Z,14.59
2019-03-31T10:02:00.572Z,15.35
2019-03-31T10:04:29.075Z,15.70
2019-03-31T10:06:57.823Z,15.23
2019-03-31T10:09:26.407Z,15.21
2019-03-31T10:11:54.891Z,15.12
2019-03-31T10:14:23.396Z,15.34
2019-03-31T10:16:51.878Z,15.67
2019-03-31T10:19:20.391Z,14.52
2019-03-31T10:21:48.879Z,14.70
2019-03-31T10:24:17.390Z,14.97
2019-03-31T10:26:45.878Z,14.78
2019-03-31T10:29:14.386Z,14.85
2019-03-31T10:31:43.239Z,15.00
2019-03-31T10:34:11.753Z,14.86
2019-03-31T10:36:44.767Z,15.26
2019-03-31T10:39:10.544Z,16.34
2019-03-31T10:41:39.023Z,16.95
2019-03-31T10:44:07.535Z,16.75
2019-03-31T10:46:36.074Z,16.22
2019-03-31T10:49:04.722Z,16.01
2019-03-31T10:51:33.284Z,15.83
2019-03-31T10:54:04.472Z,15.79
2019-03-31T10:56:31.999Z,15.31
2019-03-31T10:59:00.503Z,15.33
2019-03-31T11:01:28.985Z,15.25
2019-03-31T11:03:57.565Z,15.80
2019-03-31T11:06:26.047Z,15.57
2019-03-31T11:08:54.635Z,15.26
2019-03-31T11:11:23.113Z,15.59
2019-03-31T11:13:51.619Z,15.30
2019-03-31T11:16:20.104Z,15.54
2019-03-31T11:18:48.603Z,15.23
2019-03-31T11:21:24.450Z,14.92
2019-03-31T11:23:52.954Z,15.64
2019-03-31T11:26:21.437Z,16.66
2019-03-31T11:28:49.950Z,15.80
2019-03-31T11:31:18.442Z,15.64
2019-03-31T11:33:46.919Z,14.89
2019-03-31T11:36:15.427Z,15.01
2019-03-31T11:38:43.906Z,14.77
2019-03-31T11:41:12.419Z,14.87
2019-03-31T11:43:40.893Z,14.37
2019-03-31T11:46:09.403Z,14.26
2019-03-31T11:48:37.959Z,14.85
2019-03-31T11:51:06.464Z,14.49
2019-03-31T11:53:34.942Z,15.13
2019-03-31T11:56:03.442Z,14.97
2019-03-31T11:58:32.461Z,15.16
2019-03-31T12:01:01.106Z,14.81
2019-03-31T12:03:31.141Z,14.68
2019-03-31T12:05:59.970Z,14.77
2019-03-31T12:08:28.521Z,14.52
2019-03-31T12:10:57.030Z,15.30
2019-03-31T12:13:25.509Z,15.43
2019-03-31T12:15:54.018Z,15.62
2019-03-31T12:18:22.496Z,16.19
2019-03-31T12:20:51.016Z,16.56
2019-03-31T12:23:19.486Z,15.98
2019-03-31T12:25:47.993Z,15.43
2019-03-31T12:28:16.474Z,15.47
2019-03-31T12:30:44.999Z,15.61
2019-03-31T12:33:13.478Z,15.24
2019-03-31T12:35:41.984Z,14.67
2019-03-31T12:38:10.528Z,14.98
2019-03-31T12:40:39.384Z,14.63
2019-03-31T12:43:07.934Z,14.78
2019-03-31T12:45:36.450Z,14.97
2019-03-31T12:48:05.069Z,14.39
2019-03-31T12:50:33.581Z,14.81
2019-03-31T12:53:02.061Z,14.89
2019-03-31T12:55:30.571Z,14.56
2019-03-31T12:57:59.054Z,14.85
2019-03-31T13:00:27.577Z,15.11
2019-03-31T13:02:56.114Z,14.76
2019-03-31T13:05:24.621Z,14.57
2019-03-31T13:07:56.608Z,14.35
2019-03-31T13:10:23.330Z,14.06
2019-03-31T13:12:51.810Z,14.30
2019-03-31T13:15:20.314Z,14.51
2019-03-31T13:17:48.803Z,14.70
2019-03-31T13:20:17.644Z,14.74
2019-03-31T13:22:46.995Z,14.41
2019-03-31T13:25:15.496Z,14.37
2019-03-31T13:27:43.977Z,14.66
2019-03-31T13:30:12.545Z,14.44
2019-03-31T13:32:41.021Z,14.08
2019-03-31T13:35:09.986Z,13.91
2019-03-31T13:37:38.453Z,14.25
2019-03-31T13:40:08.023Z,14.65
2019-03-31T13:42:36.575Z,15.53
2019-03-31T13:45:08.342Z,16.25
2019-03-31T13:47:36.829Z,15.83
2019-03-31T13:50:09.478Z,15.04
2019-03-31T13:52:38.021Z,15.04
2019-03-31T13:55:10.311Z,14.59
2019-03-31T13:57:40.033Z,14.31
2019-03-31T14:00:11.181Z,14.35
2019-03-31T14:02:40.526Z,14.14
2019-03-31T14:05:09.574Z,13.59
2019-03-31T14:07:38.052Z,13.95
2019-03-31T14:10:08.000Z,14.12
2019-03-31T14:12:36.477Z,14.02
2019-03-31T14:15:18.900Z,14.67
2019-03-31T14:17:38.474Z,14.39
2019-03-31T14:20:07.589Z,14.46
2019-03-31T14:22:36.097Z,14.65
2019-03-31T14:25:06.223Z,14.98
2019-03-31T14:27:34.725Z,15.12
2019-03-31T14:30:05.152Z,14.17
2019-03-31T14:32:33.663Z,14.52
2019-03-31T14:35:02.150Z,13.98
2019-03-31T14:37:30.663Z,14.24
2019-03-31T14:39:59.150Z,14.00
2019-03-31T14:42:27.672Z,14.38
2019-03-31T14:44:56.217Z,14.38
2019-03-31T14:47:24.721Z,13.94
2019-03-31T14:49:53.208Z,13.48
2019-03-31T14:52:27.471Z,13.16
2019-03-31T14:54:51.927Z,13.29
2019-03-31T14:57:20.430Z,13.31
2019-03-31T14:59:48.911Z,13.18
2019-03-31T15:02:17.419Z,12.91
2019-03-31T15:04:45.897Z,12.91
2019-03-31T15:07:14.407Z,12.90
2019-03-31T15:09:42.887Z,12.82
2019-03-31T15:12:11.385Z,12.71
2019-03-31T15:14:39.950Z,12.77
2019-03-31T15:17:08.471Z,12.61
2019-03-31T15:19:36.948Z,12.55
2019-03-31T15:22:05.453Z,12.39
2019-03-31T15:24:33.937Z,12.42
2019-03-31T15:27:02.444Z,12.34
2019-03-31T15:29:30.934Z,12.28
2019-03-31T15:31:59.428Z,12.18
2019-03-31T15:34:27.907Z,12.14
2019-03-31T15:36:56.415Z,12.17
2019-03-31T15:39:24.908Z,12.12
2019-03-31T15:41:53.410Z,12.11
2019-03-31T15:44:21.895Z,11.79
2019-03-31T15:46:50.405Z,11.74
2019-03-31T15:49:18.890Z,11.60
2019-03-31T15:51:47.391Z,11.50
2019-03-31T15:54:17.449Z,11.40
2019-03-31T15:56:46.031Z,11.57
2019-03-31T15:59:14.510Z,11.62
2019-03-31T16:01:43.089Z,11.63
2019-03-31T16:04:11.625Z,11.60
2019-03-31T16:06:40.098Z,11.54
2019-03-31T16:09:22.368Z,11.68
2019-03-31T16:11:52.875Z,11.69
2019-03-31T16:14:09.154Z,11.46
2019-03-31T16:16:37.652Z,11.52
2019-03-31T16:19:06.130Z,11.47
2019-03-31T16:21:34.639Z,11.43
2019-03-31T16:24:03.119Z,11.40
2019-03-31T16:26:31.626Z,11.33
2019-03-31T16:29:00.108Z,11.32
2019-03-31T16:31:28.661Z,11.03
2019-03-31T16:33:57.145Z,11.19
2019-03-31T16:36:25.656Z,11.25
2019-03-31T16:38:54.144Z,11.19
2019-03-31T16:41:22.641Z,11.01
2019-03-31T16:43:51.121Z,11.12
2019-03-31T16:46:19.642Z,11.21
2019-03-31T16:48:48.126Z,11.28
2019-03-31T16:51:16.612Z,11.30
2019-03-31T16:53:45.198Z,11.30
2019-03-31T16:56:13.678Z,11.22
2019-03-31T16:58:42.180Z,11.22
2019-03-31T17:01:10.662Z,11.08
2019-03-31T17:03:39.174Z,10.93
2019-03-31T17:06:07.655Z,10.87
2019-03-31T17:08:36.161Z,10.84
2019-03-31T17:11:05.589Z,10.64
2019-03-31T17:13:34.309Z,10.56
2019-03-31T17:16:02.859Z,10.41
2019-03-31T17:18:31.379Z,10.21
2019-03-31T17:20:59.872Z,10.12
2019-03-31T17:23:28.376Z,10.03
2019-03-31T17:25:56.856Z,9.84
2019-03-31T17:28:25.365Z,9.82
2019-03-31T17:30:53.845Z,9.79
2019-03-31T17:33:22.346Z,9.82
2019-03-31T17:35:50.820Z,9.87
2019-03-31T17:38:19.319Z,9.77
2019-03-31T17:40:47.798Z,9.55
2019-03-31T17:43:16.311Z,9.49
2019-03-31T17:45:44.788Z,9.56
2019-03-31T17:48:13.300Z,9.34
2019-03-31T17:50:41.777Z,9.28
2019-03-31T17:53:10.272Z,9.24
2019-03-31T17:55:38.749Z,9.29
2019-03-31T17:58:07.256Z,9.23
2019-03-31T18:00:35.736Z,9.29
2019-03-31T18:03:04.314Z,9.30
2019-03-31T18:05:32.791Z,9.37
2019-03-31T18:08:01.295Z,9.39
2019-03-31T18:10:29.781Z,9.40
2019-03-31T18:12:58.284Z,9.42
2019-03-31T18:15:26.759Z,9.26
2019-03-31T18:17:55.271Z,9.24
2019-03-31T18:20:23.752Z,9.15
2019-03-31T18:22:52.258Z,9.10
2019-03-31T18:25:20.754Z,8.72
2019-03-31T18:27:49.265Z,8.60
2019-03-31T18:30:18.183Z,8.27
2019-03-31T18:32:46.688Z,8.24
2019-03-31T18:35:16.937Z,8.09
2019-03-31T18:37:45.401Z,7.91
2019-03-31T18:40:14.039Z,7.85
2019-03-31T18:42:42.553Z,7.56
2019-03-31T18:45:11.176Z,7.35
2019-03-31T18:47:39.700Z,7.17
2019-03-31T18:50:08.448Z,6.93
2019-03-31T18:52:36.952Z,6.77
2019-03-31T18:55:24.370Z,6.72
2019-03-31T18:57:54.524Z,6.49
2019-03-31T19:00:24.656Z,6.33
2019-03-31T19:03:06.779Z,6.15
2019-03-31T19:05:53.917Z,5.86
2019-03-31T19:08:36.105Z,5.70
2019-03-31T19:11:15.544Z,5.54
2019-03-31T19:13:55.871Z,5.28
2019-03-31T19:16:35.305Z,5.22
2019-03-31T19:19:06.066Z,5.13
2019-03-31T19:21:52.712Z,4.91
2019-03-31T19:24:38.700Z,4.80
2019-03-31T19:27:14.567Z,4.83
2019-03-31T19:29:59.712Z,4.65
2019-03-31T19:32:38.948Z,4.60
2019-03-31T19:35:21.520Z,4.47
2019-03-31T19:37:54.637Z,4.45
2019-03-31T19:40:41.528Z,4.49
2019-03-31T19:43:18.151Z,4.46
2019-03-31T19:45:53.949Z,4.32
2019-03-31T19:48:40.809Z,4.31
2019-03-31T19:51:19.772Z,4.15
2019-03-31T19:53:59.368Z,4.20
2019-03-31T19:56:29.515Z,4.17
2019-03-31T19:59:15.863Z,4.12
2019-03-31T20:02:04.147Z,4.05
2019-03-31T20:04:34.290Z,4.01
2019-03-31T20:07:07.507Z,3.87
2019-03-31T20:09:53.850Z,3.86
2019-03-31T20:12:26.433Z,3.78
2019-03-31T20:15:13.449Z,3.84
2019-03-31T20:17:43.903Z,3.84
2019-03-31T20:20:19.821Z,3.72
2019-03-31T20:23:01.995Z,3.72
2019-03-31T20:25:32.296Z,3.77
2019-03-31T20:28:02.820Z,3.51
2019-03-31T20:30:41.774Z,3.49
2019-03-31T20:33:28.069Z,3.42
2019-03-31T20:36:14.064Z,3.42
2019-03-31T20:38:44.209Z,3.46
2019-03-31T20:41:32.540Z,3.35
2019-03-31T20:44:01.282Z,3.38
2019-03-31T20:46:29.760Z,3.38
2019-03-31T20:48:58.257Z,3.35
2019-03-31T20:51:26.735Z,3.42
2019-03-31T20:53:55.251Z,3.51
2019-03-31T20:56:23.747Z,3.54
2019-03-31T20:58:52.440Z,3.37
2019-03-31T21:01:20.914Z,3.34
2019-03-31T21:03:49.423Z,3.30
2019-03-31T21:06:17.962Z,3.35
2019-03-31T21:08:46.759Z,3.36
2019-03-31T21:11:15.242Z,3.45
2019-03-31T21:13:44.059Z,3.60
2019-03-31T21:16:12.535Z,3.72
2019-03-31T21:18:41.043Z,3.91
2019-03-31T21:21:09.515Z,4.05
2019-03-31T21:23:38.015Z,4.37
2019-03-31T21:26:06.494Z,4.56
2019-03-31T21:28:35.005Z,4.87
2019-03-31T21:31:03.473Z,5.22
2019-03-31T21:33:31.962Z,5.34
2019-03-31T21:36:00.432Z,5.41
2019-03-31T21:38:28.911Z,5.57
2019-03-31T21:40:57.414Z,5.69
2019-03-31T21:43:25.886Z,5.75
2019-03-31T21:45:54.381Z,5.80
2019-03-31T21:48:22.855Z,5.90
2019-03-31T21:50:51.347Z,5.85
2019-03-31T21:53:19.907Z,5.87
2019-03-31T21:55:48.405Z,5.78
2019-03-31T21:58:16.873Z,5.67
2019-03-31T22:00:55.584Z,5.71
2019-03-31T22:03:24.054Z,5.62
2019-03-31T22:05:52.692Z,5.46
2019-03-31T22:08:21.160Z,5.33
2019-03-31T22:10:49.660Z,5.26
2019-03-31T22:13:18.134Z,5.12
2019-03-31T22:15:47.041Z,5.09
2019-03-31T22:18:15.829Z,5.02
2019-03-31T22:20:47.331Z,4.99
2019-03-31T22:23:14.664Z,4.93
2019-03-31T22:25:43.173Z,4.87
2019-03-31T22:28:11.646Z,4.84
2019-03-31T22:30:40.136Z,4.71
2019-03-31T22:33:08.617Z,4.63
2019-03-31T22:35:37.113Z,4.55
2019-03-31T22:38:05.589Z,4.64
2019-03-31T22:40:34.097Z,4.58
2019-03-31T22:43:02.567Z,4.52
2019-03-31T22:45:31.070Z,4.52
2019-03-31T22:47:59.545Z,4.39
2019-03-31T22:50:28.048Z,4.32
2019-03-31T22:52:56.520Z,4.38
2019-03-31T22:55:25.015Z,4.35
2019-03-31T22:57:53.488Z,4.25
2019-03-31T23:00:23.767Z,4.31
2019-03-31T23:02:52.236Z,4.24
2019-03-31T23:05:20.741Z,4.15
2019-03-31T23:07:49.210Z,4.13
2019-03-31T23:10:17.707Z,4.18
2019-03-31T23:12:46.180Z,4.17
2019-03-31T23:15:14.749Z,4.02
2019-03-31T23:17:43.220Z,4.12
2019-03-31T23:20:11.726Z,4.08
2019-03-31T23:22:40.184Z,4.15
2019-03-31T23:25:08.754Z,3.96
2019-03-31T23:27:37.226Z,4.03
2019-03-31T23:30:09.008Z,4.11
2019-03-31T23:32:37.546Z,4.10
2019-03-31T23:35:07.385Z,4.10
2019-03-31T23:37:35.864Z,4.15
2019-03-31T23:40:05.001Z,4.15
2019-03-31T23:42:33.812Z,4.17
2019-03-31T23:45:02.377Z,4.26
2019-03-31T23:47:30.850Z,4.12
2019-03-31T23:49:59.349Z,4.00
2019-03-31T23:52:27.823Z,4.00
2019-03-31T23:54:56.322Z,3.89
2019-03-31T23:57:41.660Z,3.75
